createdAt,value
2018-04-18T00:00:05.090Z,45
2018-04-18T00:15:05.195Z,45
2018-04-18T00:30:04.912Z,45
2018-04-18T00:45:04.489Z,45
2018-04-18T01:00:05.201Z,45
2018-04-18T01:15:05.272Z,45
2018-04-18T01:30:05.114Z,44
2018-04-18T01:45:04.836Z,45
2018-04-18T02:00:04.974Z,45
2018-04-18T02:15:05.064Z,44
2018-04-18T02:30:04.922Z,46
2018-04-18T02:45:04.600Z,44
2018-04-18T03:00:05.737Z,45
2018-04-18T03:15:05.075Z,45
2018-04-18T03:30:05.198Z,46
2018-04-18T03:45:05.289Z,46
2018-04-18T04:00:05.072Z,47
2018-04-18T04:15:04.552Z,49
2018-04-18T04:30:04.679Z,49
2018-04-18T04:45:05.961Z,51
2018-04-18T05:00:06.414Z,55
2018-04-18T05:15:05.255Z,54
2018-04-18T05:30:05.039Z,51
2018-04-18T05:45:04.704Z,55
2018-04-18T06:00:04.831Z,59
2018-04-18T06:15:04.719Z,60
2018-04-18T06:30:05.512Z,57
2018-04-18T06:45:05.241Z,58
2018-04-18T07:00:04.720Z,57
2018-04-18T07:15:04.808Z,60
2018-04-18T07:30:08.013Z,73
2018-04-18T07:45:05.267Z,73
2018-04-18T08:00:04.807Z,73
2018-04-18T08:15:05.150Z,97
2018-04-18T08:30:05.257Z,126
2018-04-18T08:45:05.297Z,79
2018-04-18T09:00:05.499Z,99
2018-04-18T09:15:10.254Z,88
2018-04-18T09:30:04.447Z,67
2018-04-18T09:45:05.729Z,60
2018-04-18T10:00:04.947Z,54
2018-04-18T10:15:04.761Z,52
2018-04-18T10:30:04.444Z,53
2018-04-18T10:45:04.851Z,52
2018-04-18T11:00:04.773Z,49
2018-04-18T11:15:04.797Z,50
2018-04-18T11:30:05.206Z,48
2018-04-18T11:45:04.764Z,50
2018-04-18T12:00:05.710Z,49
2018-04-18T12:15:04.627Z,52
2018-04-18T12:30:04.777Z,52
2018-04-18T12:45:05.472Z,50
2018-04-18T13:00:04.674Z,51
2018-04-18T13:15:04.641Z,50
2018-04-18T13:30:05.415Z,51
2018-04-18T13:45:05.428Z,51
2018-04-18T14:00:05.371Z,51
2018-04-18T14:15:05.006Z,50
2018-04-18T14:30:05.422Z,52
2018-04-18T14:45:04.423Z,55
2018-04-18T15:00:04.963Z,53
2018-04-18T15:15:04.766Z,51
2018-04-18T15:30:04.954Z,51
2018-04-18T15:45:05.588Z,54
2018-04-18T16:00:05.030Z,54
2018-04-18T16:15:04.579Z,50
2018-04-18T16:30:05.338Z,51
2018-04-18T16:45:04.895Z,52
2018-04-18T17:00:04.417Z,52
2018-04-18T17:15:04.905Z,51
2018-04-18T17:30:04.569Z,54
2018-04-18T17:45:05.104Z,53
2018-04-18T18:00:05.061Z,51
2018-04-18T18:15:04.504Z,53
2018-04-18T18:30:04.766Z,52
2018-04-18T18:45:05.275Z,50
2018-04-18T19:00:05.412Z,50
2018-04-18T19:15:05.459Z,51
2018-04-18T19:30:04.803Z,57
2018-04-18T19:45:05.305Z,56
2018-04-18T20:00:04.837Z,54
2018-04-18T20:15:05.246Z,51
2018-04-18T20:30:04.933Z,57
2018-04-18T20:45:04.615Z,54
2018-04-18T21:00:04.737Z,54
2018-04-18T21:15:04.783Z,53
2018-04-18T21:30:04.526Z,53
2018-04-18T21:45:05.276Z,50
2018-04-18T22:00:04.817Z,50
2018-04-18T22:15:04.406Z,49
2018-04-18T22:30:05.200Z,48
2018-04-18T22:45:05.032Z,48
2018-04-18T23:00:09.819Z,47
2018-04-18T23:15:05.512Z,47
2018-04-18T23:30:04.940Z,47
2018-04-18T23:45:04.695Z,46
